sensor_id;sensor_type;location;lat;lon;timestamp;P1;durP1;ratioP1;P2;durP2;ratioP2
2644;SDS011;15377;48.540;9.268;2023-08-20T00:01:15;14.03;;;10.17;;
2644;SDS011;15377;48.540;9.268;2023-08-20T00:03:46;12.90;;;8.30;;
2644;SDS011;15377;48.540;9.268;2023-08-20T00:06:13;15.27;;;8.73;;
2644;SDS011;15377;48.540;9.268;2023-08-20T00:08:38;11.70;;;8.30;;
2644;SDS011;15377;48.540;9.268;2023-08-20T00:11:04;11.90;;;8.33;;
2644;SDS011;15377;48.540;9.268;2023-08-20T00:13:30;14.33;;;9.40;;
2644;SDS011;15377;48.540;9.268;2023-08-20T00:15:56;15.03;;;8.50;;
2644;SDS011;15377;48.540;9.268;2023-08-20T00:18:21;14.80;;;9.27;;
2644;SDS011;15377;48.540;9.268;2023-08-20T00:20:47;13.00;;;8.90;;
2644;SDS011;15377;48.540;9.268;2023-08-20T00:23:13;13.17;;;9.37;;
2644;SDS011;15377;48.540;9.268;2023-08-20T00:25:38;13.00;;;8.63;;
2644;SDS011;15377;48.540;9.268;2023-08-20T00:28:04;15.13;;;10.27;;
2644;SDS011;15377;48.540;9.268;2023-08-20T00:30:29;12.13;;;9.17;;
2644;SDS011;15377;48.540;9.268;2023-08-20T00:32:55;12.90;;;9.20;;
2644;SDS011;15377;48.540;9.268;2023-08-20T00:35:20;14.03;;;8.50;;
2644;SDS011;15377;48.540;9.268;2023-08-20T00:37:46;13.50;;;9.30;;
2644;SDS011;15377;48.540;9.268;2023-08-20T00:40:12;12.10;;;8.70;;
2644;SDS011;15377;48.540;9.268;2023-08-20T00:42:37;12.97;;;9.50;;
2644;SDS011;15377;48.540;9.268;2023-08-20T00:45:04;12.43;;;9.17;;
2644;SDS011;15377;48.540;9.268;2023-08-20T00:47:30;13.33;;;9.60;;
2644;SDS011;15377;48.540;9.268;2023-08-20T00:49:56;12.13;;;8.80;;
2644;SDS011;15377;48.540;9.268;2023-08-20T00:52:22;14.53;;;9.50;;
2644;SDS011;15377;48.540;9.268;2023-08-20T00:54:47;12.50;;;8.63;;
2644;SDS011;15377;48.540;9.268;2023-08-20T00:57:14;12.63;;;8.30;;
2644;SDS011;15377;48.540;9.268;2023-08-20T00:59:43;13.00;;;8.60;;
2644;SDS011;15377;48.540;9.268;2023-08-20T01:02:09;17.20;;;9.40;;
2644;SDS011;15377;48.540;9.268;2023-08-20T01:04:34;13.23;;;8.90;;
2644;SDS011;15377;48.540;9.268;2023-08-20T01:07:03;12.97;;;8.33;;
2644;SDS011;15377;48.540;9.268;2023-08-20T01:12:27;11.87;;;8.87;;
2644;SDS011;15377;48.540;9.268;2023-08-20T01:14:54;11.80;;;8.30;;
2644;SDS011;15377;48.540;9.268;2023-08-20T01:17:19;11.50;;;7.97;;
2644;SDS011;15377;48.540;9.268;2023-08-20T01:19:45;14.87;;;9.60;;
2644;SDS011;15377;48.540;9.268;2023-08-20T01:27:26;13.80;;;9.83;;
2644;SDS011;15377;48.540;9.268;2023-08-20T01:30:02;13.37;;;9.40;;
2644;SDS011;15377;48.540;9.268;2023-08-20T01:32:28;15.50;;;11.20;;
2644;SDS011;15377;48.540;9.268;2023-08-20T01:34:54;13.93;;;10.30;;
2644;SDS011;15377;48.540;9.268;2023-08-20T01:37:20;14.63;;;9.40;;
2644;SDS011;15377;48.540;9.268;2023-08-20T01:39:45;15.70;;;9.57;;
2644;SDS011;15377;48.540;9.268;2023-08-20T01:42:11;13.60;;;9.10;;
2644;SDS011;15377;48.540;9.268;2023-08-20T01:44:36;14.10;;;10.70;;
2644;SDS011;15377;48.540;9.268;2023-08-20T01:47:01;12.43;;;9.30;;
2644;SDS011;15377;48.540;9.268;2023-08-20T01:49:27;19.27;;;9.60;;
2644;SDS011;15377;48.540;9.268;2023-08-20T01:51:52;11.47;;;9.07;;
2644;SDS011;15377;48.540;9.268;2023-08-20T01:54:17;13.37;;;9.40;;
2644;SDS011;15377;48.540;9.268;2023-08-20T01:56:43;12.47;;;8.70;;
2644;SDS011;15377;48.540;9.268;2023-08-20T01:59:08;13.97;;;10.40;;
2644;SDS011;15377;48.540;9.268;2023-08-20T02:01:33;13.60;;;9.50;;
2644;SDS011;15377;48.540;9.268;2023-08-20T02:03:59;14.30;;;10.13;;
2644;SDS011;15377;48.540;9.268;2023-08-20T02:06:24;14.30;;;9.93;;
2644;SDS011;15377;48.540;9.268;2023-08-20T02:08:50;16.07;;;10.50;;
2644;SDS011;15377;48.540;9.268;2023-08-20T02:11:15;14.67;;;9.80;;
2644;SDS011;15377;48.540;9.268;2023-08-20T02:13:40;16.73;;;10.63;;
2644;SDS011;15377;48.540;9.268;2023-08-20T02:16:06;13.80;;;10.13;;
2644;SDS011;15377;48.540;9.268;2023-08-20T02:18:32;13.30;;;10.07;;
2644;SDS011;15377;48.540;9.268;2023-08-20T02:20:57;12.60;;;10.60;;
2644;SDS011;15377;48.540;9.268;2023-08-20T02:23:23;15.10;;;11.30;;
2644;SDS011;15377;48.540;9.268;2023-08-20T02:25:48;15.37;;;10.70;;
2644;SDS011;15377;48.540;9.268;2023-08-20T02:28:14;15.13;;;10.27;;
2644;SDS011;15377;48.540;9.268;2023-08-20T02:30:44;15.13;;;10.53;;
2644;SDS011;15377;48.540;9.268;2023-08-20T02:33:10;13.70;;;10.37;;
2644;SDS011;15377;48.540;9.268;2023-08-20T02:35:39;15.07;;;10.40;;
2644;SDS011;15377;48.540;9.268;2023-08-20T02:38:05;15.17;;;9.77;;
2644;SDS011;15377;48.540;9.268;2023-08-20T02:40:31;14.00;;;10.43;;
2644;SDS011;15377;48.540;9.268;2023-08-20T02:42:57;14.27;;;9.63;;
2644;SDS011;15377;48.540;9.268;2023-08-20T02:45:22;14.43;;;11.00;;
2644;SDS011;15377;48.540;9.268;2023-08-20T02:47:48;14.50;;;10.83;;
2644;SDS011;15377;48.540;9.268;2023-08-20T02:50:14;16.90;;;11.77;;
2644;SDS011;15377;48.540;9.268;2023-08-20T02:52:41;13.90;;;9.57;;
2644;SDS011;15377;48.540;9.268;2023-08-20T02:55:07;14.43;;;10.60;;
2644;SDS011;15377;48.540;9.268;2023-08-20T02:57:33;15.30;;;11.13;;
2644;SDS011;15377;48.540;9.268;2023-08-20T02:59:58;13.40;;;10.20;;
2644;SDS011;15377;48.540;9.268;2023-08-20T03:02:24;12.20;;;8.63;;
2644;SDS011;15377;48.540;9.268;2023-08-20T03:04:49;14.60;;;10.70;;
2644;SDS011;15377;48.540;9.268;2023-08-20T03:07:14;14.57;;;9.87;;
2644;SDS011;15377;48.540;9.268;2023-08-20T03:09:40;13.23;;;10.00;;
2644;SDS011;15377;48.540;9.268;2023-08-20T03:12:05;13.17;;;9.13;;
2644;SDS011;15377;48.540;9.268;2023-08-20T03:14:31;12.80;;;9.80;;
2644;SDS011;15377;48.540;9.268;2023-08-20T03:16:56;13.83;;;10.10;;
2644;SDS011;15377;48.540;9.268;2023-08-20T03:19:22;12.10;;;8.67;;
2644;SDS011;15377;48.540;9.268;2023-08-20T03:21:47;14.10;;;10.30;;
2644;SDS011;15377;48.540;9.268;2023-08-20T03:24:12;13.90;;;9.70;;
2644;SDS011;15377;48.540;9.268;2023-08-20T03:26:38;17.80;;;9.67;;
2644;SDS011;15377;48.540;9.268;2023-08-20T03:29:03;13.77;;;10.40;;
2644;SDS011;15377;48.540;9.268;2023-08-20T03:31:29;17.80;;;11.30;;
2644;SDS011;15377;48.540;9.268;2023-08-20T03:33:54;12.43;;;9.90;;
2644;SDS011;15377;48.540;9.268;2023-08-20T03:36:19;14.40;;;10.87;;
2644;SDS011;15377;48.540;9.268;2023-08-20T03:38:45;12.07;;;9.80;;
2644;SDS011;15377;48.540;9.268;2023-08-20T03:41:10;14.37;;;9.80;;
2644;SDS011;15377;48.540;9.268;2023-08-20T03:43:35;12.77;;;9.90;;
2644;SDS011;15377;48.540;9.268;2023-08-20T03:46:01;13.13;;;9.67;;
2644;SDS011;15377;48.540;9.268;2023-08-20T03:48:27;15.30;;;9.63;;
2644;SDS011;15377;48.540;9.268;2023-08-20T03:50:52;14.30;;;9.77;;
2644;SDS011;15377;48.540;9.268;2023-08-20T03:53:18;14.67;;;10.13;;
2644;SDS011;15377;48.540;9.268;2023-08-20T03:55:49;15.43;;;9.60;;
2644;SDS011;15377;48.540;9.268;2023-08-20T03:58:15;13.20;;;10.43;;
2644;SDS011;15377;48.540;9.268;2023-08-20T04:00:40;14.40;;;11.40;;
2644;SDS011;15377;48.540;9.268;2023-08-20T04:03:06;15.67;;;11.20;;
2644;SDS011;15377;48.540;9.268;2023-08-20T04:05:37;17.53;;;11.53;;
2644;SDS011;15377;48.540;9.268;2023-08-20T04:08:04;19.10;;;12.37;;
2644;SDS011;15377;48.540;9.268;2023-08-20T04:10:29;15.87;;;11.33;;
2644;SDS011;15377;48.540;9.268;2023-08-20T04:12:56;13.90;;;10.90;;
2644;SDS011;15377;48.540;9.268;2023-08-20T04:15:21;13.63;;;9.80;;
2644;SDS011;15377;48.540;9.268;2023-08-20T04:17:46;15.40;;;11.37;;
2644;SDS011;15377;48.540;9.268;2023-08-20T04:20:13;15.33;;;11.27;;
2644;SDS011;15377;48.540;9.268;2023-08-20T04:22:39;15.53;;;11.40;;
2644;SDS011;15377;48.540;9.268;2023-08-20T04:25:05;13.43;;;9.93;;
2644;SDS011;15377;48.540;9.268;2023-08-20T04:27:31;13.70;;;10.53;;
2644;SDS011;15377;48.540;9.268;2023-08-20T04:29:56;14.03;;;10.47;;
2644;SDS011;15377;48.540;9.268;2023-08-20T04:32:21;13.87;;;9.37;;
2644;SDS011;15377;48.540;9.268;2023-08-20T04:34:47;15.43;;;11.73;;
2644;SDS011;15377;48.540;9.268;2023-08-20T04:37:14;14.30;;;11.00;;
2644;SDS011;15377;48.540;9.268;2023-08-20T04:39:40;14.90;;;9.53;;
2644;SDS011;15377;48.540;9.268;2023-08-20T04:42:05;15.40;;;11.00;;
2644;SDS011;15377;48.540;9.268;2023-08-20T04:44:30;15.93;;;10.87;;
2644;SDS011;15377;48.540;9.268;2023-08-20T04:46:56;16.20;;;11.20;;
2644;SDS011;15377;48.540;9.268;2023-08-20T04:49:21;15.10;;;11.43;;
2644;SDS011;15377;48.540;9.268;2023-08-20T04:51:46;15.83;;;11.80;;
2644;SDS011;15377;48.540;9.268;2023-08-20T04:54:12;13.20;;;10.07;;
2644;SDS011;15377;48.540;9.268;2023-08-20T04:56:37;14.67;;;10.60;;
2644;SDS011;15377;48.540;9.268;2023-08-20T04:59:02;16.63;;;11.50;;
2644;SDS011;15377;48.540;9.268;2023-08-20T05:01:28;15.40;;;11.10;;
2644;SDS011;15377;48.540;9.268;2023-08-20T05:03:53;14.93;;;10.60;;
2644;SDS011;15377;48.540;9.268;2023-08-20T05:06:18;16.87;;;10.13;;
2644;SDS011;15377;48.540;9.268;2023-08-20T05:08:44;14.60;;;10.27;;
2644;SDS011;15377;48.540;9.268;2023-08-20T05:11:09;17.27;;;12.27;;
2644;SDS011;15377;48.540;9.268;2023-08-20T05:13:34;14.50;;;10.50;;
2644;SDS011;15377;48.540;9.268;2023-08-20T05:16:00;16.63;;;11.80;;
2644;SDS011;15377;48.540;9.268;2023-08-20T05:18:25;16.57;;;11.30;;
2644;SDS011;15377;48.540;9.268;2023-08-20T05:20:51;18.07;;;12.27;;
2644;SDS011;15377;48.540;9.268;2023-08-20T05:23:17;15.10;;;12.30;;
2644;SDS011;15377;48.540;9.268;2023-08-20T05:25:42;17.33;;;12.10;;
2644;SDS011;15377;48.540;9.268;2023-08-20T05:28:08;16.30;;;11.37;;
2644;SDS011;15377;48.540;9.268;2023-08-20T05:30:33;16.70;;;12.53;;
2644;SDS011;15377;48.540;9.268;2023-08-20T05:32:59;16.33;;;12.17;;
2644;SDS011;15377;48.540;9.268;2023-08-20T05:35:24;18.50;;;13.03;;
2644;SDS011;15377;48.540;9.268;2023-08-20T05:37:50;14.80;;;10.73;;
2644;SDS011;15377;48.540;9.268;2023-08-20T05:40:15;16.10;;;13.10;;
2644;SDS011;15377;48.540;9.268;2023-08-20T05:42:41;15.80;;;11.60;;
2644;SDS011;15377;48.540;9.268;2023-08-20T05:45:06;15.23;;;12.23;;
2644;SDS011;15377;48.540;9.268;2023-08-20T05:47:32;14.57;;;11.10;;
2644;SDS011;15377;48.540;9.268;2023-08-20T05:49:57;14.70;;;11.33;;
2644;SDS011;15377;48.540;9.268;2023-08-20T05:52:23;17.07;;;12.13;;
2644;SDS011;15377;48.540;9.268;2023-08-20T05:54:48;20.87;;;12.50;;
2644;SDS011;15377;48.540;9.268;2023-08-20T05:57:13;14.63;;;9.70;;
2644;SDS011;15377;48.540;9.268;2023-08-20T05:59:39;15.87;;;12.23;;
2644;SDS011;15377;48.540;9.268;2023-08-20T06:02:04;15.60;;;11.70;;
2644;SDS011;15377;48.540;9.268;2023-08-20T06:04:30;15.00;;;11.93;;
2644;SDS011;15377;48.540;9.268;2023-08-20T06:06:55;16.67;;;12.30;;
2644;SDS011;15377;48.540;9.268;2023-08-20T06:09:21;14.07;;;10.50;;
2644;SDS011;15377;48.540;9.268;2023-08-20T06:11:46;14.60;;;11.10;;
2644;SDS011;15377;48.540;9.268;2023-08-20T06:14:11;17.57;;;11.93;;
2644;SDS011;15377;48.540;9.268;2023-08-20T06:16:37;16.90;;;11.37;;
2644;SDS011;15377;48.540;9.268;2023-08-20T06:19:02;15.83;;;11.17;;
2644;SDS011;15377;48.540;9.268;2023-08-20T06:21:28;16.57;;;11.60;;
2644;SDS011;15377;48.540;9.268;2023-08-20T06:23:53;16.50;;;10.70;;
2644;SDS011;15377;48.540;9.268;2023-08-20T06:26:18;15.10;;;10.80;;
2644;SDS011;15377;48.540;9.268;2023-08-20T06:28:45;16.50;;;11.70;;
2644;SDS011;15377;48.540;9.268;2023-08-20T06:31:10;15.80;;;11.47;;
2644;SDS011;15377;48.540;9.268;2023-08-20T06:33:36;18.60;;;12.70;;
2644;SDS011;15377;48.540;9.268;2023-08-20T06:36:01;15.73;;;11.50;;
2644;SDS011;15377;48.540;9.268;2023-08-20T06:38:26;14.00;;;10.27;;
2644;SDS011;15377;48.540;9.268;2023-08-20T06:40:52;14.23;;;11.00;;
2644;SDS011;15377;48.540;9.268;2023-08-20T06:43:18;13.57;;;10.40;;
2644;SDS011;15377;48.540;9.268;2023-08-20T06:45:43;14.10;;;10.43;;
2644;SDS011;15377;48.540;9.268;2023-08-20T06:48:09;13.60;;;11.03;;
2644;SDS011;15377;48.540;9.268;2023-08-20T06:50:34;14.17;;;9.90;;
2644;SDS011;15377;48.540;9.268;2023-08-20T06:52:59;14.00;;;9.90;;
2644;SDS011;15377;48.540;9.268;2023-08-20T06:55:25;15.13;;;9.80;;
2644;SDS011;15377;48.540;9.268;2023-08-20T06:57:50;14.63;;;10.80;;
2644;SDS011;15377;48.540;9.268;2023-08-20T07:00:16;12.87;;;9.40;;
2644;SDS011;15377;48.540;9.268;2023-08-20T07:02:41;15.30;;;10.30;;
2644;SDS011;15377;48.540;9.268;2023-08-20T07:05:06;13.07;;;9.90;;
2644;SDS011;15377;48.540;9.268;2023-08-20T07:07:34;13.67;;;10.80;;
2644;SDS011;15377;48.540;9.268;2023-08-20T07:09:59;19.63;;;9.70;;
2644;SDS011;15377;48.540;9.268;2023-08-20T07:12:25;18.60;;;11.10;;
2644;SDS011;15377;48.540;9.268;2023-08-20T07:14:50;12.40;;;9.77;;
2644;SDS011;15377;48.540;9.268;2023-08-20T07:17:15;13.27;;;9.57;;
2644;SDS011;15377;48.540;9.268;2023-08-20T07:19:41;13.60;;;9.90;;
2644;SDS011;15377;48.540;9.268;2023-08-20T07:22:06;16.43;;;10.27;;
2644;SDS011;15377;48.540;9.268;2023-08-20T07:24:31;14.07;;;10.70;;
2644;SDS011;15377;48.540;9.268;2023-08-20T07:27:00;11.83;;;9.23;;
2644;SDS011;15377;48.540;9.268;2023-08-20T07:29:27;14.00;;;10.90;;
2644;SDS011;15377;48.540;9.268;2023-08-20T07:31:56;15.17;;;11.33;;
2644;SDS011;15377;48.540;9.268;2023-08-20T07:34:22;11.83;;;9.80;;
2644;SDS011;15377;48.540;9.268;2023-08-20T07:36:47;15.80;;;9.90;;
2644;SDS011;15377;48.540;9.268;2023-08-20T07:39:13;12.13;;;10.00;;
2644;SDS011;15377;48.540;9.268;2023-08-20T07:41:39;14.63;;;10.67;;
2644;SDS011;15377;48.540;9.268;2023-08-20T07:44:05;13.67;;;10.30;;
2644;SDS011;15377;48.540;9.268;2023-08-20T07:46:30;13.77;;;10.40;;
2644;SDS011;15377;48.540;9.268;2023-08-20T07:48:56;14.87;;;10.77;;
2644;SDS011;15377;48.540;9.268;2023-08-20T07:51:21;12.33;;;10.03;;
2644;SDS011;15377;48.540;9.268;2023-08-20T07:53:47;15.70;;;10.67;;
2644;SDS011;15377;48.540;9.268;2023-08-20T07:56:12;14.20;;;10.20;;
2644;SDS011;15377;48.540;9.268;2023-08-20T07:58:37;15.97;;;10.30;;
2644;SDS011;15377;48.540;9.268;2023-08-20T08:01:03;18.00;;;11.60;;
2644;SDS011;15377;48.540;9.268;2023-08-20T08:03:28;13.80;;;10.20;;
2644;SDS011;15377;48.540;9.268;2023-08-20T08:05:53;13.30;;;11.40;;
2644;SDS011;15377;48.540;9.268;2023-08-20T08:08:19;15.20;;;10.33;;
2644;SDS011;15377;48.540;9.268;2023-08-20T08:10:45;14.50;;;10.00;;
2644;SDS011;15377;48.540;9.268;2023-08-20T08:13:11;13.97;;;10.70;;
2644;SDS011;15377;48.540;9.268;2023-08-20T08:15:37;16.37;;;12.03;;
2644;SDS011;15377;48.540;9.268;2023-08-20T08:18:03;14.73;;;10.73;;
2644;SDS011;15377;48.540;9.268;2023-08-20T08:20:28;12.83;;;9.90;;
2644;SDS011;15377;48.540;9.268;2023-08-20T08:22:53;13.40;;;10.13;;
2644;SDS011;15377;48.540;9.268;2023-08-20T08:25:19;13.60;;;10.17;;
2644;SDS011;15377;48.540;9.268;2023-08-20T08:27:44;14.80;;;10.10;;
2644;SDS011;15377;48.540;9.268;2023-08-20T08:30:09;15.43;;;10.47;;
2644;SDS011;15377;48.540;9.268;2023-08-20T08:32:35;12.97;;;10.30;;
2644;SDS011;15377;48.540;9.268;2023-08-20T08:35:00;12.30;;;11.00;;
2644;SDS011;15377;48.540;9.268;2023-08-20T08:37:26;15.50;;;10.40;;
2644;SDS011;15377;48.540;9.268;2023-08-20T08:39:51;15.30;;;10.60;;
2644;SDS011;15377;48.540;9.268;2023-08-20T08:42:16;15.43;;;10.23;;
2644;SDS011;15377;48.540;9.268;2023-08-20T08:44:47;13.80;;;10.90;;
2644;SDS011;15377;48.540;9.268;2023-08-20T08:47:13;13.30;;;10.80;;
2644;SDS011;15377;48.540;9.268;2023-08-20T08:49:38;13.70;;;11.20;;
2644;SDS011;15377;48.540;9.268;2023-08-20T08:52:04;13.27;;;10.07;;
2644;SDS011;15377;48.540;9.268;2023-08-20T08:54:32;13.50;;;9.17;;
2644;SDS011;15377;48.540;9.268;2023-08-20T08:56:58;13.60;;;10.73;;
2644;SDS011;15377;48.540;9.268;2023-08-20T08:59:24;15.00;;;11.50;;
2644;SDS011;15377;48.540;9.268;2023-08-20T09:01:49;14.03;;;10.10;;
2644;SDS011;15377;48.540;9.268;2023-08-20T09:04:14;11.90;;;9.83;;
2644;SDS011;15377;48.540;9.268;2023-08-20T09:06:47;11.53;;;9.67;;
2644;SDS011;15377;48.540;9.268;2023-08-20T09:09:13;13.10;;;9.90;;
2644;SDS011;15377;48.540;9.268;2023-08-20T09:11:39;12.30;;;9.80;;
2644;SDS011;15377;48.540;9.268;2023-08-20T09:14:04;12.93;;;9.53;;
2644;SDS011;15377;48.540;9.268;2023-08-20T09:16:30;12.50;;;9.30;;
2644;SDS011;15377;48.540;9.268;2023-08-20T09:18:57;12.70;;;9.90;;
2644;SDS011;15377;48.540;9.268;2023-08-20T09:21:28;12.30;;;9.00;;
2644;SDS011;15377;48.540;9.268;2023-08-20T09:23:54;11.80;;;8.70;;
2644;SDS011;15377;48.540;9.268;2023-08-20T09:26:21;11.93;;;9.30;;
2644;SDS011;15377;48.540;9.268;2023-08-20T09:28:46;12.17;;;9.07;;
2644;SDS011;15377;48.540;9.268;2023-08-20T09:31:12;11.50;;;8.83;;
2644;SDS011;15377;48.540;9.268;2023-08-20T09:33:59;11.83;;;9.00;;
2644;SDS011;15377;48.540;9.268;2023-08-20T09:36:31;11.17;;;8.83;;
2644;SDS011;15377;48.540;9.268;2023-08-20T09:38:58;11.90;;;8.93;;
2644;SDS011;15377;48.540;9.268;2023-08-20T09:41:23;12.10;;;9.10;;
2644;SDS011;15377;48.540;9.268;2023-08-20T09:43:50;10.83;;;7.90;;
2644;SDS011;15377;48.540;9.268;2023-08-20T09:46:20;11.13;;;8.93;;
2644;SDS011;15377;48.540;9.268;2023-08-20T09:48:48;13.40;;;10.10;;
2644;SDS011;15377;48.540;9.268;2023-08-20T09:51:16;12.60;;;8.90;;
2644;SDS011;15377;48.540;9.268;2023-08-20T09:53:58;11.40;;;8.60;;
2644;SDS011;15377;48.540;9.268;2023-08-20T09:56:34;13.03;;;8.60;;
2644;SDS011;15377;48.540;9.268;2023-08-20T09:59:03;12.80;;;8.20;;
2644;SDS011;15377;48.540;9.268;2023-08-20T10:01:29;13.67;;;8.33;;
2644;SDS011;15377;48.540;9.268;2023-08-20T10:03:56;9.63;;;7.70;;
2644;SDS011;15377;48.540;9.268;2023-08-20T10:06:21;11.23;;;8.07;;
2644;SDS011;15377;48.540;9.268;2023-08-20T10:08:49;11.60;;;8.10;;
2644;SDS011;15377;48.540;9.268;2023-08-20T10:11:16;11.70;;;7.20;;
2644;SDS011;15377;48.540;9.268;2023-08-20T10:13:41;10.87;;;7.47;;
2644;SDS011;15377;48.540;9.268;2023-08-20T10:16:07;10.23;;;7.70;;
2644;SDS011;15377;48.540;9.268;2023-08-20T10:18:34;12.43;;;8.13;;
2644;SDS011;15377;48.540;9.268;2023-08-20T10:21:00;11.63;;;7.47;;
2644;SDS011;15377;48.540;9.268;2023-08-20T10:23:26;11.53;;;7.90;;
2644;SDS011;15377;48.540;9.268;2023-08-20T10:25:52;11.07;;;7.43;;
2644;SDS011;15377;48.540;9.268;2023-08-20T10:28:21;8.93;;;6.33;;
2644;SDS011;15377;48.540;9.268;2023-08-20T10:31:05;9.10;;;6.30;;
2644;SDS011;15377;48.540;9.268;2023-08-20T10:33:34;10.37;;;7.03;;
2644;SDS011;15377;48.540;9.268;2023-08-20T10:36:13;9.97;;;6.80;;
2644;SDS011;15377;48.540;9.268;2023-08-20T10:38:40;9.10;;;7.00;;
2644;SDS011;15377;48.540;9.268;2023-08-20T10:41:06;9.67;;;7.00;;
2644;SDS011;15377;48.540;9.268;2023-08-20T10:43:39;9.90;;;6.70;;
2644;SDS011;15377;48.540;9.268;2023-08-20T10:46:20;8.87;;;6.80;;
2644;SDS011;15377;48.540;9.268;2023-08-20T10:48:53;8.90;;;6.73;;
2644;SDS011;15377;48.540;9.268;2023-08-20T10:56:26;10.20;;;6.83;;
2644;SDS011;15377;48.540;9.268;2023-08-20T10:59:09;12.17;;;6.13;;
2644;SDS011;15377;48.540;9.268;2023-08-20T11:01:45;9.50;;;6.20;;
2644;SDS011;15377;48.540;9.268;2023-08-20T11:04:12;9.03;;;7.10;;
2644;SDS011;15377;48.540;9.268;2023-08-20T11:06:40;8.40;;;6.27;;
2644;SDS011;15377;48.540;9.268;2023-08-20T11:09:06;11.60;;;6.43;;
2644;SDS011;15377;48.540;9.268;2023-08-20T11:11:31;9.73;;;6.47;;
2644;SDS011;15377;48.540;9.268;2023-08-20T11:14:03;10.37;;;6.67;;
2644;SDS011;15377;48.540;9.268;2023-08-20T11:16:31;9.00;;;6.67;;
2644;SDS011;15377;48.540;9.268;2023-08-20T11:18:56;12.63;;;7.07;;
2644;SDS011;15377;48.540;9.268;2023-08-20T11:21:22;11.57;;;6.73;;
2644;SDS011;15377;48.540;9.268;2023-08-20T11:23:48;9.10;;;7.13;;
2644;SDS011;15377;48.540;9.268;2023-08-20T11:26:13;10.37;;;7.77;;
2644;SDS011;15377;48.540;9.268;2023-08-20T11:28:38;9.00;;;6.33;;
2644;SDS011;15377;48.540;9.268;2023-08-20T11:31:10;8.33;;;5.70;;
2644;SDS011;15377;48.540;9.268;2023-08-20T11:33:35;13.00;;;7.17;;
2644;SDS011;15377;48.540;9.268;2023-08-20T11:36:01;8.70;;;6.20;;
2644;SDS011;15377;48.540;9.268;2023-08-20T11:38:26;11.63;;;6.83;;
2644;SDS011;15377;48.540;9.268;2023-08-20T11:40:53;9.10;;;6.20;;
2644;SDS011;15377;48.540;9.268;2023-08-20T11:43:18;11.33;;;7.00;;
2644;SDS011;15377;48.540;9.268;2023-08-20T11:45:44;9.47;;;6.60;;
2644;SDS011;15377;48.540;9.268;2023-08-20T11:48:13;12.80;;;7.00;;
2644;SDS011;15377;48.540;9.268;2023-08-20T11:50:39;12.10;;;6.77;;
2644;SDS011;15377;48.540;9.268;2023-08-20T11:53:05;8.33;;;5.93;;
2644;SDS011;15377;48.540;9.268;2023-08-20T11:55:31;9.60;;;6.43;;
2644;SDS011;15377;48.540;9.268;2023-08-20T11:57:56;9.03;;;6.70;;
2644;SDS011;15377;48.540;9.268;2023-08-20T12:00:26;9.90;;;6.43;;
2644;SDS011;15377;48.540;9.268;2023-08-20T12:02:55;11.90;;;7.40;;
2644;SDS011;15377;48.540;9.268;2023-08-20T12:05:29;10.43;;;7.20;;
2644;SDS011;15377;48.540;9.268;2023-08-20T12:07:59;8.90;;;6.27;;
2644;SDS011;15377;48.540;9.268;2023-08-20T12:10:26;10.00;;;6.60;;
2644;SDS011;15377;48.540;9.268;2023-08-20T12:12:53;12.07;;;7.63;;
2644;SDS011;15377;48.540;9.268;2023-08-20T12:15:20;8.70;;;6.50;;
2644;SDS011;15377;48.540;9.268;2023-08-20T12:18:02;14.13;;;6.40;;
2644;SDS011;15377;48.540;9.268;2023-08-20T12:20:32;10.70;;;7.30;;
2644;SDS011;15377;48.540;9.268;2023-08-20T12:23:00;9.47;;;6.47;;
2644;SDS011;15377;48.540;9.268;2023-08-20T12:25:32;9.57;;;6.27;;
2644;SDS011;15377;48.540;9.268;2023-08-20T12:28:00;9.50;;;6.70;;
2644;SDS011;15377;48.540;9.268;2023-08-20T12:30:26;9.43;;;6.40;;
2644;SDS011;15377;48.540;9.268;2023-08-20T12:32:52;11.70;;;6.57;;
2644;SDS011;15377;48.540;9.268;2023-08-20T12:35:17;12.30;;;6.40;;
2644;SDS011;15377;48.540;9.268;2023-08-20T12:37:43;9.97;;;7.10;;
2644;SDS011;15377;48.540;9.268;2023-08-20T12:40:08;9.20;;;6.73;;
2644;SDS011;15377;48.540;9.268;2023-08-20T12:42:36;8.60;;;6.33;;
2644;SDS011;15377;48.540;9.268;2023-08-20T12:45:03;10.20;;;6.80;;
2644;SDS011;15377;48.540;9.268;2023-08-20T12:47:29;10.83;;;6.73;;
2644;SDS011;15377;48.540;9.268;2023-08-20T12:49:55;12.17;;;6.50;;
2644;SDS011;15377;48.540;9.268;2023-08-20T12:52:20;10.83;;;7.40;;
2644;SDS011;15377;48.540;9.268;2023-08-20T12:54:45;11.73;;;7.37;;
2644;SDS011;15377;48.540;9.268;2023-08-20T12:57:11;9.80;;;6.57;;
2644;SDS011;15377;48.540;9.268;2023-08-20T12:59:37;10.03;;;6.90;;
2644;SDS011;15377;48.540;9.268;2023-08-20T13:02:02;10.60;;;6.30;;
2644;SDS011;15377;48.540;9.268;2023-08-20T13:04:28;10.20;;;6.50;;
2644;SDS011;15377;48.540;9.268;2023-08-20T13:06:54;9.77;;;7.30;;
2644;SDS011;15377;48.540;9.268;2023-08-20T13:09:19;9.80;;;7.00;;
2644;SDS011;15377;48.540;9.268;2023-08-20T13:11:45;11.50;;;7.10;;
2644;SDS011;15377;48.540;9.268;2023-08-20T13:14:12;18.30;;;9.23;;
2644;SDS011;15377;48.540;9.268;2023-08-20T13:16:38;8.80;;;6.77;;
2644;SDS011;15377;48.540;9.268;2023-08-20T13:19:04;12.80;;;7.57;;
2644;SDS011;15377;48.540;9.268;2023-08-20T13:21:29;11.67;;;8.13;;
2644;SDS011;15377;48.540;9.268;2023-08-20T13:23:55;11.70;;;7.07;;
2644;SDS011;15377;48.540;9.268;2023-08-20T13:26:20;9.43;;;6.90;;
2644;SDS011;15377;48.540;9.268;2023-08-20T13:28:47;10.60;;;7.13;;
2644;SDS011;15377;48.540;9.268;2023-08-20T13:31:13;11.50;;;6.63;;
2644;SDS011;15377;48.540;9.268;2023-08-20T13:33:39;8.60;;;6.40;;
2644;SDS011;15377;48.540;9.268;2023-08-20T13:36:05;10.40;;;6.83;;
2644;SDS011;15377;48.540;9.268;2023-08-20T13:38:32;11.63;;;7.43;;
2644;SDS011;15377;48.540;9.268;2023-08-20T13:40:57;11.30;;;7.07;;
2644;SDS011;15377;48.540;9.268;2023-08-20T13:43:23;9.60;;;6.70;;
2644;SDS011;15377;48.540;9.268;2023-08-20T13:45:48;12.23;;;8.10;;
2644;SDS011;15377;48.540;9.268;2023-08-20T13:48:14;9.03;;;6.83;;
2644;SDS011;15377;48.540;9.268;2023-08-20T13:50:39;9.30;;;6.67;;
2644;SDS011;15377;48.540;9.268;2023-08-20T13:53:04;9.50;;;7.53;;
2644;SDS011;15377;48.540;9.268;2023-08-20T13:55:30;10.73;;;7.93;;
2644;SDS011;15377;48.540;9.268;2023-08-20T13:57:56;10.60;;;6.33;;
2644;SDS011;15377;48.540;9.268;2023-08-20T14:00:21;10.07;;;7.13;;
2644;SDS011;15377;48.540;9.268;2023-08-20T14:02:47;10.20;;;6.73;;
2644;SDS011;15377;48.540;9.268;2023-08-20T14:05:13;12.50;;;7.80;;
2644;SDS011;15377;48.540;9.268;2023-08-20T14:07:38;9.73;;;6.57;;
2644;SDS011;15377;48.540;9.268;2023-08-20T14:10:04;10.27;;;7.23;;
2644;SDS011;15377;48.540;9.268;2023-08-20T14:12:30;11.73;;;7.83;;
2644;SDS011;15377;48.540;9.268;2023-08-20T14:14:55;8.70;;;6.20;;
2644;SDS011;15377;48.540;9.268;2023-08-20T14:17:21;9.43;;;7.10;;
2644;SDS011;15377;48.540;9.268;2023-08-20T14:19:46;11.07;;;6.80;;
2644;SDS011;15377;48.540;9.268;2023-08-20T14:22:12;10.53;;;7.20;;
2644;SDS011;15377;48.540;9.268;2023-08-20T14:24:37;11.10;;;7.30;;
2644;SDS011;15377;48.540;9.268;2023-08-20T14:27:02;9.67;;;6.53;;
2644;SDS011;15377;48.540;9.268;2023-08-20T14:29:28;10.70;;;7.10;;
2644;SDS011;15377;48.540;9.268;2023-08-20T14:31:53;10.47;;;7.10;;
2644;SDS011;15377;48.540;9.268;2023-08-20T14:34:18;12.63;;;7.13;;
2644;SDS011;15377;48.540;9.268;2023-08-20T14:36:44;8.93;;;6.90;;
2644;SDS011;15377;48.540;9.268;2023-08-20T14:39:09;9.60;;;6.83;;
2644;SDS011;15377;48.540;9.268;2023-08-20T14:41:35;9.60;;;6.70;;
2644;SDS011;15377;48.540;9.268;2023-08-20T14:44:00;11.30;;;6.93;;
2644;SDS011;15377;48.540;9.268;2023-08-20T14:46:26;12.40;;;7.53;;
2644;SDS011;15377;48.540;9.268;2023-08-20T14:48:51;10.13;;;7.07;;
2644;SDS011;15377;48.540;9.268;2023-08-20T14:51:16;10.93;;;6.40;;
2644;SDS011;15377;48.540;9.268;2023-08-20T14:53:42;8.87;;;7.10;;